Home > Products > Valid Products > MTR

000
SAUS45 KTWC 241152
MTRSAD
METAR KSAD 241151Z AUTO 15004KT 10SM CLR M02/M18 A3016 RMK AO2
SLP206 T10171178 10044 21022 53001





000
SAUS45 KTWC 241053
MTRSAD
METAR KSAD 241051Z AUTO 08007KT 10SM CLR M01/M18 A3016 RMK AO2
SLP200 T10061178





000
SAUS45 KTWC 240953
MTRSAD
METAR KSAD 240951Z AUTO 35007KT 10SM CLR 02/M19 A3016 RMK AO2 SLP200
T00221189





000
SAUS45 KTWC 240953
MTRSAD
METAR KSAD 240951Z AUTO 35007KT 10SM CLR 02/M19 A3016 RMK AO2 SLP200
T00221189





000
SAUS45 KTWC 240853
MTRSAD
METAR KSAD 240851Z AUTO 34008KT 10SM CLR 02/M18 A3016 RMK AO2 SLP198
T00221183 53008





000
SAUS45 KTWC 240752
MTRSAD
METAR KSAD 240751Z AUTO 34008KT 10SM CLR 02/M18 A3014 RMK AO2 SLP192
T00221183





000
SAUS45 KTWC 240652
MTRSAD
METAR KSAD 240651Z AUTO 32009KT 10SM CLR 04/M17 A3015 RMK AO2 SLP191
T00391172 401890033





000
SAUS45 KTWC 240552
MTRSAD
METAR KSAD 240551Z AUTO 33009KT 10SM CLR 04/M18 A3013 RMK AO2 SLP188
T00441183 10156 20039 51015





000
SAUS45 KTWC 240452
MTRSAD
METAR KSAD 240451Z AUTO 34006KT 10SM CLR 06/M19 A3013 RMK AO2 SLP183
T00611194





000
SAUS45 KTWC 240352
MTRSAD
METAR KSAD 240351Z AUTO 33011KT 10SM CLR 09/M20 A3011 RMK AO2 SLP178
T00941200





000
SAUS45 KTWC 240252
MTRSAD
METAR KSAD 240251Z AUTO 32016KT 10SM CLR 11/M22 A3009 RMK AO2 SLP170
T01061217 53023





000
SAUS45 KTWC 240152
MTRSAD
METAR KSAD 240151Z AUTO 33017KT 10SM CLR 12/M23 A3006 RMK AO2 SLP165
T01221233





000
SAUS45 KTWC 240052
MTRSAD
METAR KSAD 240051Z AUTO 32015KT 10SM CLR 13/M22 A3003 RMK AO2 PK WND
33032/2357 SLP156 T01331222





000
SAUS45 KTWC 232353
MTRSAD
METAR KSAD 232351Z AUTO 33023G37KT 10SM CLR 16/M23 A3001 RMK AO2 PK
WND 32037/2347 SLP147 T01561228 10189 20156 53022





000
SAUS45 KTWC 232253
MTRSAD
METAR KSAD 232251Z AUTO 33022G26KT 10SM CLR 17/M23 A2998 RMK AO2 PK
WND 32034/2213 SLP135 T01721228





000
SAUS45 KTWC 232153
MTRSAD
METAR KSAD 232151Z AUTO 32022G34KT 10SM CLR 18/M17 A2996 RMK AO2 PK
WND 32034/2151 SLP125 T01781167





000
SAUS45 KTWC 232153
MTRSAD
METAR KSAD 232151Z AUTO 32022G34KT 10SM CLR 18/M17 A2996 RMK AO2 PK
WND 32034/2151 SLP125 T01781167





000
SAUS45 KTWC 232053
MTRSAD
METAR KSAD 232051Z AUTO 30021G31KT 10SM CLR 18/M06 A2994 RMK AO2 PK
WND 30036/2026 SLP118 T01831061 56017





000
SAUS45 KTWC 231953
MTRSAD
METAR KSAD 231951Z AUTO 30020G31KT 10SM CLR 18/M04 A2996 RMK AO2 PK
WND 31033/1900 SLP122 T01831039





000
SAUS45 KTWC 231852
MTRSAD
METAR KSAD 231851Z AUTO 33023G34KT 9SM CLR 18/M04 A2998 RMK AO2 PK
WND 32035/1840 SLP130 T01781044





000
SAUS45 KTWC 231753
MTRSAD
METAR KSAD 231751Z AUTO 31020G26KT 10SM CLR 17/M02 A3000 RMK AO2 PK
WND 31028/1714 SLP132 T01671022 10167 20033 50005





000
SAUS45 KTWC 231652
MTRSAD
METAR KSAD 231651Z AUTO 31019G26KT 10SM CLR 16/M03 A3001 RMK AO2 PK
WND 31026/1651 SLP137 T01561028





000
SAUS45 KTWC 231552
MTRSAD
METAR KSAD 231551Z AUTO 31016KT 10SM CLR 14/M03 A3000 RMK AO2 SLP134
T01391033





000
SAUS45 KTWC 231552
MTRSAD
METAR KSAD 231551Z AUTO 31016KT 10SM CLR 14/M03 A3000 RMK AO2 SLP134
T01391033





000
SAUS45 KTWC 231452
MTRSAD
METAR KSAD 231451Z AUTO 31012KT 10SM CLR 11/M03 A2998 RMK AO2 SLP131
T01111033 51016





000
SAUS45 KTWC 231352
MTRSAD
METAR KSAD 231351Z AUTO 13004KT 10SM CLR 04/M06 A2996 RMK AO2 SLP133
T00391056





000
SAUS45 KTWC 231252
MTRSAD
METAR KSAD 231251Z AUTO 11004KT 10SM CLR 04/M06 A2995 RMK AO2 SLP125
T00391056





000
SAUS45 KTWC 231152
MTRSAD
METAR KSAD 231151Z AUTO 10005KT 10SM CLR 04/M06 A2993 RMK AO2 SLP117
T00391056 10117 20039 55005





000
SAUS45 KTWC 231052
MTRSAD
METAR KSAD 231051Z AUTO 10006KT 10SM CLR 04/M06 A2992 RMK AO2 SLP113
T00391061





000
SAUS45 KTWC 230952
MTRSAD
METAR KSAD 230951Z AUTO 11004KT 10SM CLR 05/M06 A2994 RMK AO2 SLP119
T00501061





000
SAUS45 KTWC 230952
MTRSAD
METAR KSAD 230951Z AUTO 11004KT 10SM CLR 05/M06 A2994 RMK AO2 SLP119
T00501061





000
SAUS45 KTWC 230853
MTRSAD
METAR KSAD 230851Z AUTO 15006KT 10SM CLR 06/M06 A2994 RMK AO2 SLP119
T00611061 55007





000
SAUS45 KTWC 230752
MTRSAD
METAR KSAD 230751Z AUTO 11005KT 10SM CLR 07/M06 A2994 RMK AO2 SLP117
T00721056





000
SAUS45 KTWC 230653
MTRSAD
METAR KSAD 230651Z AUTO 00000KT 10SM CLR 07/M06 A2995 RMK AO2 SLP126
T00671061 401941006





000
SAUS45 KTWC 230553
MTRSAD
METAR KSAD 230551Z AUTO 26006KT 10SM CLR 12/M06 A2997 RMK AO2 SLP126
T01171056 10172 20083 55000





000
SAUS45 KTWC 230452
MTRSAD
METAR KSAD 230451Z AUTO 31006KT 10SM CLR 11/M06 A2994 RMK AO2 SLP120
T01061056





000
SAUS45 KTWC 230352
MTRSAD
METAR KSAD 230351Z AUTO 33015KT 10SM CLR 13/M06 A2995 RMK AO2 SLP127
T01281061





000
SAUS45 KTWC 230252
MTRSAD
METAR KSAD 230251Z AUTO 32010KT 10SM CLR 13/M06 A2997 RMK AO2 SLP136
T01331056 50007





000
SAUS45 KTWC 230153
MTRSAD
METAR KSAD 230151Z AUTO 32007KT 10SM CLR 14/M06 A2997 RMK AO2 SLP139
T01391056





000
SAUS45 KTWC 230052
MTRSAD
METAR KSAD 230051Z AUTO 31011KT 10SM CLR 16/M07 A2996 RMK AO2 SLP131
T01611067





000
SAUS45 KTWC 222352
MTRSAD
METAR KSAD 222351Z AUTO 26008KT 10SM CLR 17/M06 A2994 RMK AO2 SLP124
T01721061 10194 20122 56016





000
SAUS45 KTWC 222252
MTRSAD
METAR KSAD 222251Z AUTO 25006KT 10SM CLR 18/M06 A2995 RMK AO2 SLP125
T01831061





000
SAUS45 KTWC 222152
MTRSAD
METAR KSAD 222151Z AUTO 27007KT 10SM CLR 18/M06 A2997 RMK AO2 SLP132
T01831061





000
SAUS45 KTWC 222152
MTRSAD
METAR KSAD 222151Z AUTO 27007KT 10SM CLR 18/M06 A2997 RMK AO2 SLP132
T01831061





000
SAUS45 KTWC 222052
MTRSAD
METAR KSAD 222051Z AUTO 25006KT 10SM CLR 18/M06 A3000 RMK AO2 SLP141
T01831061 58030





000
SAUS45 KTWC 221952
MTRSAD
METAR KSAD 221951Z AUTO VRB04KT 10SM CLR 17/M06 A3004 RMK AO2 SLP156
T01721056





000
SAUS45 KTWC 221853
MTRSAD
METAR KSAD 221851Z AUTO VRB03KT 10SM CLR 14/M06 A3008 RMK AO2 SLP175
T01391061





000
SAUS45 KTWC 221752
MTRSAD
METAR KSAD 221751Z AUTO 00000KT 10SM CLR 12/M06 A3010 RMK AO2 SLP178
T01221061 10122 21006 50000





000
SAUS45 KTWC 221652
MTRSAD
METAR KSAD 221651Z AUTO 00000KT 10SM CLR 09/M06 A3012 RMK AO2 SLP186
T00891061





000
SAUS45 KTWC 221552
MTRSAD
METAR KSAD 221551Z AUTO 00000KT 10SM CLR 06/M06 A3011 RMK AO2 SLP187
T00561061





000
SAUS45 KTWC 221552
MTRSAD
METAR KSAD 221551Z AUTO 00000KT 10SM CLR 06/M06 A3011 RMK AO2 SLP187
T00561061





000
SAUS45 KTWC 221452
MTRSAD
METAR KSAD 221451Z AUTO 16003KT 10SM CLR 02/M07 A3009 RMK AO2 SLP184
T00221067 52020





000
SAUS45 KTWC 221352
MTRSAD
METAR KSAD 221351Z AUTO 09003KT 10SM CLR 00/M07 A3007 RMK AO2 SLP176
T00001072





000
SAUS45 KTWC 221253
MTRSAD
METAR KSAD 221251Z AUTO 12004KT 10SM CLR 01/M07 A3005 RMK AO2 SLP170
T00111072





000
SAUS45 KTWC 221152
MTRSAD
METAR KSAD 221151Z AUTO 11006KT 10SM CLR 01/M07 A3003 RMK AO2 SLP158
T00111072 10056 20006 53007





000
SAUS45 KTWC 221052
MTRSAD
METAR KSAD 221051Z AUTO 11005KT 10SM CLR 01/M07 A3002 RMK AO2 SLP153
T00111067





000
SAUS45 KTWC 220952
MTRSAD
METAR KSAD 220951Z AUTO 14004KT 10SM CLR 02/M07 A3001 RMK AO2 SLP149
T00221067





000
SAUS45 KTWC 220852
MTRSAD
METAR KSAD 220851Z AUTO 11004KT 10SM CLR 02/M07 A3000 RMK AO2 SLP147
T00171067 50005





000
SAUS45 KTWC 220752
MTRSAD
METAR KSAD 220751Z AUTO 00000KT 10SM CLR 03/M07 A3001 RMK AO2 SLP145
T00281067





000
SAUS45 KTWC 220652
MTRSAD
METAR KSAD 220651Z AUTO 00000KT 10SM CLR 03/M06 A3000 RMK AO2 SLP143
T00281061 401610022





000
SAUS45 KTWC 220553
MTRSAD
METAR KSAD 220551Z AUTO 00000KT 10SM CLR 05/M06 A2999 RMK AO2 SLP139
T00501056 10144 20050 51010





000
SAUS45 KTWC 220452
MTRSAD
METAR KSAD 220451Z AUTO 34007KT 10SM CLR 08/M06 A2998 RMK AO2 SLP136
T00831061





000
SAUS45 KTWC 220352
MTRSAD
METAR KSAD 220351Z AUTO 34010KT 10SM CLR 09/M06 A2998 RMK AO2 SLP137
T00891061





000
SAUS45 KTWC 220252
MTRSAD
METAR KSAD 220251Z AUTO 28007KT 10SM CLR 09/M06 A2996 RMK AO2 SLP132
T00941056 53009





000
SAUS45 KTWC 220152
MTRSAD
METAR KSAD 220151Z AUTO 34006KT 10SM CLR 11/M05 A2994 RMK AO2 SLP124
T01061050





000
SAUS45 KTWC 220052
MTRSAD
METAR KSAD 220051Z AUTO 33006KT 10SM CLR 11/M06 A2993 RMK AO2 SLP119
T01061056





000
SAUS45 KTWC 212352
MTRSAD
METAR KSAD 212351Z AUTO 31006KT 10SM CLR 14/M06 A2993 RMK AO2 SLP118
T01441061 10161 20139 53004





000
SAUS45 KTWC 212252
MTRSAD
METAR KSAD 212251Z AUTO 29009KT 10SM CLR 16/M06 A2991 RMK AO2 SLP112
T01561056





000
SAUS45 KTWC 212155
MTRSAD
METAR KSAD 212151Z AUTO 30008KT 10SM CLR 15/M06 A2991 RMK AO2 SLP115
T01501056





000
SAUS45 KTWC 212053
MTRSAD
METAR KSAD 212051Z AUTO 29008KT 10SM CLR 16/M06 A2991 RMK AO2 SLP112
T01561056 56020





000
SAUS45 KTWC 211952
MTRSAD
METAR KSAD 211951Z AUTO 26004KT 10SM CLR 16/M06 A2993 RMK AO2 SLP117
T01561061





000
SAUS45 KTWC 211852
MTRSAD
METAR KSAD 211851Z AUTO 11006KT 10SM CLR 16/M06 A2995 RMK AO2 SLP125
T01561061





000
SAUS45 KTWC 211753
MTRSAD
METAR KSAD 211751Z AUTO 13008KT 10SM CLR 14/M06 A2998 RMK AO2 SLP135
T01391056 10139 20033 58001





000
SAUS45 KTWC 211652
MTRSAD
METAR KSAD 211651Z AUTO 15009KT 10SM CLR 10/M07 A2999 RMK AO2 SLP142
T01001067





000
SAUS45 KTWC 211552
MTRSAD
METAR KSAD 211551Z AUTO 15007KT 10SM CLR 08/M06 A2999 RMK AO2 SLP144
T00831061





000
SAUS45 KTWC 211552
MTRSAD
METAR KSAD 211551Z AUTO 15007KT 10SM CLR 08/M06 A2999 RMK AO2 SLP144
T00831061





000
SAUS45 KTWC 211452
MTRSAD
METAR KSAD 211451Z AUTO VRB03KT 10SM CLR 06/M06 A2998 RMK AO2 SLP140
T00611061 53002





000
SAUS45 KTWC 211352
MTRSAD
METAR KSAD 211351Z AUTO 11009KT 10SM CLR 07/M06 A2996 RMK AO2 SLP130
T00721061





000
SAUS45 KTWC 211253
MTRSAD
METAR KSAD 211251Z AUTO 11010KT 10SM CLR 08/M07 A2997 RMK AO2 SLP132
T00781067





    US Dept of Commerce
    National Oceanic and Atmospheric Administration
    National Weather Service
    1325 East West Highway
    Silver Spring, MD 20910
    Page Author: NWS Internet Services Team
Disclaimer
Information Quality
Credits
Glossary
Privacy Policy
Freedom of Information Act (FOIA)
About Us
Career Opportunities